createdAt,value
2019-02-14T00:01:11.904Z,13.53
2019-02-14T00:03:43.152Z,12.50
2019-02-14T00:06:14.345Z,13.80
2019-02-14T00:08:45.586Z,14.57
2019-02-14T00:11:16.810Z,13.93
2019-02-14T00:13:48.051Z,12.90
2019-02-14T00:16:19.323Z,14.20
2019-02-14T00:18:50.729Z,14.80
2019-02-14T00:21:22.076Z,12.63
2019-02-14T00:23:53.297Z,13.03
2019-02-14T00:26:24.563Z,13.63
2019-02-14T00:28:55.743Z,13.87
2019-02-14T00:31:26.932Z,13.83
2019-02-14T00:33:58.124Z,14.63
2019-02-14T00:36:29.357Z,13.40
2019-02-14T00:39:00.625Z,14.17
2019-02-14T00:41:33.597Z,13.73
2019-02-14T00:44:05.928Z,13.20
2019-02-14T00:46:37.126Z,14.47
2019-02-14T00:49:08.333Z,15.20
2019-02-14T00:51:39.605Z,14.43
2019-02-14T00:54:10.764Z,13.70
2019-02-14T00:56:41.973Z,14.60
2019-02-14T00:59:13.309Z,14.67
2019-02-14T01:01:44.815Z,14.57
2019-02-14T01:04:16.385Z,15.30
2019-02-14T01:06:47.693Z,15.40
2019-02-14T01:09:19.459Z,14.97
2019-02-14T01:11:51.752Z,14.97
2019-02-14T01:14:23.003Z,15.30
2019-02-14T01:16:54.149Z,14.77
2019-02-14T01:19:25.824Z,15.87
2019-02-14T01:21:56.995Z,16.30
2019-02-14T01:24:28.173Z,15.20
2019-02-14T01:27:00.636Z,15.93
2019-02-14T01:29:32.781Z,16.97
2019-02-14T01:32:04.060Z,15.57
2019-02-14T01:34:35.663Z,16.27
2019-02-14T01:37:06.804Z,16.07
2019-02-14T01:39:38.065Z,16.63
2019-02-14T01:42:09.205Z,17.90
2019-02-14T01:44:40.494Z,17.53
2019-02-14T01:47:11.727Z,16.70
2019-02-14T01:49:42.991Z,16.63
2019-02-14T01:52:14.186Z,15.77
2019-02-14T01:54:45.482Z,16.40
2019-02-14T01:57:16.657Z,15.67
2019-02-14T01:59:47.819Z,17.53
2019-02-14T02:02:19.083Z,17.10
2019-02-14T02:04:50.365Z,16.87
2019-02-14T02:07:21.533Z,16.20
2019-02-14T02:09:52.704Z,16.17
2019-02-14T02:12:23.886Z,17.30
2019-02-14T02:14:55.290Z,16.23
2019-02-14T02:17:26.476Z,17.07
2019-02-14T02:19:57.777Z,16.67
2019-02-14T02:22:28.967Z,16.53
2019-02-14T02:25:00.265Z,16.50
2019-02-14T02:27:31.518Z,17.07
2019-02-14T02:30:02.883Z,16.37
2019-02-14T02:32:34.140Z,17.70
2019-02-14T02:35:05.324Z,17.20
2019-02-14T02:37:36.672Z,17.83
2019-02-14T02:40:08.031Z,17.97
2019-02-14T02:42:39.257Z,17.97
2019-02-14T02:45:11.911Z,16.33
2019-02-14T02:47:43.115Z,16.03
2019-02-14T02:50:14.353Z,17.60
2019-02-14T02:52:45.545Z,17.63
2019-02-14T02:55:16.734Z,16.90
2019-02-14T02:57:47.993Z,17.00
2019-02-14T03:00:19.212Z,17.80
2019-02-14T03:02:50.469Z,16.87
2019-02-14T03:05:21.685Z,17.37
2019-02-14T03:07:53.209Z,16.20
2019-02-14T03:10:24.378Z,17.07
2019-02-14T03:12:55.875Z,16.67
2019-02-14T03:15:27.173Z,16.83
2019-02-14T03:17:58.333Z,17.17
2019-02-14T03:20:29.500Z,16.33
2019-02-14T03:23:00.825Z,16.93
2019-02-14T03:25:32.032Z,16.80
2019-02-14T03:28:03.262Z,15.90
2019-02-14T03:30:34.465Z,16.20
2019-02-14T03:33:05.626Z,17.40
2019-02-14T03:35:36.979Z,16.63
2019-02-14T03:38:08.165Z,16.90
2019-02-14T03:40:39.622Z,15.60
2019-02-14T03:43:10.951Z,16.20
2019-02-14T03:45:42.132Z,16.97
2019-02-14T03:48:13.469Z,15.97
2019-02-14T03:50:44.759Z,19.00
2019-02-14T03:53:17.277Z,16.87
2019-02-14T03:55:48.583Z,15.00
2019-02-14T03:58:19.998Z,16.37
2019-02-14T04:00:51.452Z,19.07
2019-02-14T04:03:22.756Z,17.00
2019-02-14T04:05:54.085Z,16.17
2019-02-14T04:08:25.370Z,16.10
2019-02-14T04:10:56.675Z,16.80
2019-02-14T04:13:28.082Z,15.77
2019-02-14T04:15:59.364Z,17.20
2019-02-14T04:18:30.803Z,17.83
2019-02-14T04:21:02.230Z,18.73
2019-02-14T04:23:33.555Z,18.43
2019-02-14T04:26:04.772Z,17.87
2019-02-14T04:28:36.244Z,18.93
2019-02-14T04:31:07.486Z,19.07
2019-02-14T04:33:38.750Z,17.50
2019-02-14T04:36:10.133Z,17.93
2019-02-14T04:38:41.434Z,18.13
2019-02-14T04:41:12.787Z,18.77
2019-02-14T04:43:44.100Z,18.50
2019-02-14T04:46:15.542Z,18.90
2019-02-14T04:48:46.822Z,19.33
2019-02-14T04:51:18.115Z,19.83
2019-02-14T04:53:49.436Z,20.03
2019-02-14T04:56:20.676Z,18.53
2019-02-14T04:58:51.962Z,20.20
2019-02-14T05:01:23.266Z,17.93
2019-02-14T05:03:55.262Z,17.87
2019-02-14T05:06:26.804Z,17.50
2019-02-14T05:08:58.412Z,18.83
2019-02-14T05:11:29.758Z,19.10
2019-02-14T05:14:01.061Z,17.77
2019-02-14T05:16:32.685Z,18.33
2019-02-14T05:19:04.019Z,16.97
2019-02-14T05:21:35.277Z,17.33
2019-02-14T05:24:06.573Z,18.13
2019-02-14T05:26:37.866Z,18.23
2019-02-14T05:29:09.190Z,17.57
2019-02-14T05:31:40.464Z,18.33
2019-02-14T05:34:11.741Z,18.27
2019-02-14T05:36:44.123Z,18.73
2019-02-14T05:39:16.596Z,18.40
2019-02-14T05:41:47.956Z,18.40
2019-02-14T05:44:19.232Z,18.50
2019-02-14T05:46:50.581Z,20.13
2019-02-14T05:49:21.883Z,20.73
2019-02-14T05:51:53.681Z,19.47
2019-02-14T05:54:24.979Z,19.50
2019-02-14T05:56:56.284Z,18.80
2019-02-14T05:59:27.654Z,19.53
2019-02-14T06:01:59.007Z,19.83
2019-02-14T06:04:30.320Z,19.40
2019-02-14T06:07:01.633Z,21.03
2019-02-14T06:09:33.055Z,19.97
2019-02-14T06:12:04.342Z,19.90
2019-02-14T06:14:35.637Z,19.13
2019-02-14T06:17:06.934Z,18.63
2019-02-14T06:19:38.205Z,19.27
2019-02-14T06:22:12.357Z,20.77
2019-02-14T06:24:43.849Z,18.83
2019-02-14T06:27:15.291Z,19.40
2019-02-14T06:29:49.467Z,19.07
2019-02-14T06:32:20.840Z,19.97
2019-02-14T06:34:52.155Z,20.67
2019-02-14T06:37:23.549Z,18.97
2019-02-14T06:39:54.907Z,20.53
2019-02-14T06:42:26.228Z,19.70
2019-02-14T06:44:57.613Z,20.50
2019-02-14T06:47:28.903Z,19.13
2019-02-14T06:50:00.477Z,19.90
2019-02-14T06:52:31.748Z,21.40
2019-02-14T06:55:03.125Z,17.70
2019-02-14T06:57:34.442Z,17.87
2019-02-14T07:00:06.570Z,19.70
2019-02-14T07:02:38.000Z,19.57
2019-02-14T07:05:09.565Z,20.63
2019-02-14T07:07:40.986Z,20.77
2019-02-14T07:10:12.303Z,22.07
2019-02-14T07:12:43.835Z,17.80
2019-02-14T07:15:15.196Z,18.37
2019-02-14T07:17:46.528Z,18.10
2019-02-14T07:20:18.052Z,18.67
2019-02-14T07:22:49.403Z,17.73
2019-02-14T07:25:20.859Z,22.03
2019-02-14T07:27:52.122Z,20.70
2019-02-14T07:30:23.498Z,19.50
2019-02-14T07:32:54.768Z,16.63
2019-02-14T07:35:26.084Z,16.70
2019-02-14T07:37:57.386Z,16.90
2019-02-14T07:40:29.798Z,16.33
2019-02-14T07:43:01.304Z,17.70
2019-02-14T07:45:32.606Z,18.43
2019-02-14T07:48:03.894Z,18.33
2019-02-14T07:50:35.273Z,16.93
2019-02-14T07:53:06.654Z,18.17
2019-02-14T07:55:38.132Z,20.03
2019-02-14T07:58:09.464Z,18.40
2019-02-14T08:00:40.992Z,18.40
2019-02-14T08:03:12.379Z,20.47
2019-02-14T08:05:43.951Z,21.03
2019-02-14T08:08:15.292Z,20.07
2019-02-14T08:10:46.653Z,20.33
2019-02-14T08:13:18.394Z,20.00
2019-02-14T08:15:49.732Z,19.47
2019-02-14T08:18:21.018Z,18.17
2019-02-14T08:20:53.970Z,17.80
2019-02-14T08:23:26.742Z,18.60
2019-02-14T08:25:58.348Z,19.00
2019-02-14T08:28:30.056Z,19.13
2019-02-14T08:31:01.386Z,19.70
2019-02-14T08:33:32.726Z,18.40
2019-02-14T08:36:04.122Z,19.73
2019-02-14T08:38:35.566Z,19.07
2019-02-14T08:41:06.922Z,18.50
2019-02-14T08:43:38.451Z,19.23
2019-02-14T08:46:09.803Z,19.87
2019-02-14T08:48:41.133Z,19.07
2019-02-14T08:51:12.473Z,18.27
2019-02-14T08:53:43.910Z,18.20
2019-02-14T08:56:15.180Z,17.07
2019-02-14T08:58:46.585Z,17.27
2019-02-14T09:01:17.900Z,17.13
2019-02-14T09:03:49.375Z,18.03
2019-02-14T09:06:20.746Z,16.37
2019-02-14T09:08:52.046Z,17.80
2019-02-14T09:11:23.473Z,16.27
2019-02-14T09:13:54.865Z,17.33
2019-02-14T09:16:26.141Z,16.93
2019-02-14T09:18:57.510Z,16.70
2019-02-14T09:21:30.775Z,15.30
2019-02-14T09:24:02.074Z,15.50
2019-02-14T09:26:33.375Z,14.47
2019-02-14T09:29:04.931Z,16.20
2019-02-14T09:31:36.232Z,16.43
2019-02-14T09:34:07.578Z,15.17
2019-02-14T09:36:38.887Z,16.10
2019-02-14T09:39:10.340Z,15.50
2019-02-14T09:41:41.679Z,16.70
2019-02-14T09:44:13.039Z,15.27
2019-02-14T09:46:44.413Z,15.57
2019-02-14T09:49:15.672Z,16.27
2019-02-14T09:51:46.956Z,16.13
2019-02-14T09:54:18.225Z,16.83
2019-02-14T09:56:50.405Z,15.30
2019-02-14T09:59:21.700Z,14.73
2019-02-14T10:01:52.894Z,13.90
2019-02-14T10:04:24.157Z,13.60
2019-02-14T10:06:55.357Z,14.07
2019-02-14T10:09:26.633Z,14.57
2019-02-14T10:11:57.854Z,9.10
2019-02-14T10:14:29.101Z,13.23
2019-02-14T10:17:00.396Z,12.67
2019-02-14T10:19:31.553Z,12.93
2019-02-14T10:22:02.815Z,12.10
2019-02-14T10:24:34.005Z,12.60
2019-02-14T10:27:05.346Z,12.73
2019-02-14T10:29:36.643Z,13.17
2019-02-14T10:32:07.914Z,12.23
2019-02-14T10:34:39.100Z,12.40
2019-02-14T10:37:10.400Z,11.53
2019-02-14T10:39:41.565Z,11.93
2019-02-14T10:42:13.093Z,11.40
2019-02-14T10:44:44.289Z,11.83
2019-02-14T10:47:15.561Z,11.53
2019-02-14T10:49:46.846Z,12.37
2019-02-14T10:52:18.033Z,9.07
2019-02-14T10:54:49.282Z,12.83
2019-02-14T10:57:20.492Z,12.07
2019-02-14T10:59:51.685Z,12.80
2019-02-14T11:02:22.971Z,12.90
2019-02-14T11:04:54.253Z,12.27
2019-02-14T11:07:25.469Z,11.37
2019-02-14T11:09:56.653Z,11.30
2019-02-14T11:12:27.870Z,11.13
2019-02-14T11:14:59.026Z,10.47
2019-02-14T11:17:30.264Z,10.43
2019-02-14T11:20:01.600Z,10.53
2019-02-14T11:22:32.759Z,11.05
2019-02-14T11:25:04.231Z,11.27
2019-02-14T11:27:35.531Z,11.40
2019-02-14T11:30:07.444Z,10.00
2019-02-14T11:32:38.662Z,11.00
2019-02-14T11:35:10.306Z,11.00
2019-02-14T11:37:41.526Z,11.27
2019-02-14T11:40:12.886Z,11.30
2019-02-14T11:42:44.237Z,11.57
2019-02-14T11:45:17.130Z,11.53
2019-02-14T11:47:48.394Z,10.20
2019-02-14T11:50:19.652Z,10.70
2019-02-14T11:52:50.859Z,10.50
2019-02-14T11:55:22.098Z,9.73
2019-02-14T11:57:53.270Z,9.28
2019-02-14T12:00:24.765Z,7.78
2019-02-14T12:02:56.465Z,9.03
2019-02-14T12:05:27.767Z,8.33
2019-02-14T12:07:58.981Z,7.63
2019-02-14T12:10:30.180Z,7.10
2019-02-14T12:13:01.400Z,7.43
2019-02-14T12:15:33.719Z,6.90
2019-02-14T12:18:04.963Z,6.40
2019-02-14T12:20:36.187Z,7.55
2019-02-14T12:23:07.406Z,6.20
2019-02-14T12:25:38.576Z,6.42
2019-02-14T12:28:09.776Z,6.47
2019-02-14T12:30:41.005Z,6.42
2019-02-14T12:33:12.162Z,6.42
2019-02-14T12:35:43.555Z,5.87
2019-02-14T12:38:14.777Z,6.55
2019-02-14T12:40:45.948Z,5.95
2019-02-14T12:43:17.171Z,6.25
2019-02-14T12:45:48.366Z,6.50
2019-02-14T12:48:19.688Z,6.53
2019-02-14T12:50:50.942Z,6.50
2019-02-14T12:53:22.145Z,6.65
2019-02-14T12:55:53.405Z,6.65
2019-02-14T12:58:24.553Z,6.75
2019-02-14T13:00:55.797Z,6.75
2019-02-14T13:03:27.068Z,6.72
2019-02-14T13:05:58.285Z,6.72
2019-02-14T13:08:29.473Z,6.28
2019-02-14T13:11:00.780Z,6.62
2019-02-14T13:13:32.130Z,6.85
2019-02-14T13:16:03.357Z,6.65
2019-02-14T13:18:34.750Z,6.22
2019-02-14T13:21:05.938Z,6.17
2019-02-14T13:23:37.158Z,6.40
2019-02-14T13:26:08.356Z,6.85
2019-02-14T13:28:39.549Z,5.78
2019-02-14T13:31:10.735Z,6.50
2019-02-14T13:33:41.988Z,6.10
2019-02-14T13:36:13.222Z,5.33
2019-02-14T13:38:44.453Z,5.35
2019-02-14T13:41:15.639Z,5.10
2019-02-14T13:43:47.040Z,4.95
2019-02-14T13:46:18.233Z,4.72
2019-02-14T13:48:49.422Z,5.08
2019-02-14T13:51:21.147Z,4.45
2019-02-14T13:53:52.350Z,4.28
2019-02-14T13:56:23.651Z,4.58
2019-02-14T13:58:54.843Z,4.17
2019-02-14T14:01:26.092Z,4.28
2019-02-14T14:03:57.332Z,4.17
2019-02-14T14:06:28.635Z,4.90
2019-02-14T14:08:59.869Z,4.58
2019-02-14T14:11:31.614Z,4.28
2019-02-14T14:14:02.842Z,4.20
2019-02-14T14:16:34.088Z,4.62
2019-02-14T14:19:06.618Z,3.95
2019-02-14T14:21:37.954Z,4.42
2019-02-14T14:24:09.267Z,4.00
2019-02-14T14:26:40.482Z,3.87
2019-02-14T14:29:11.770Z,4.40
2019-02-14T14:31:43.904Z,4.53
2019-02-14T14:34:15.177Z,4.03
2019-02-14T14:36:46.361Z,3.83
2019-02-14T14:39:17.582Z,4.22
2019-02-14T14:41:48.979Z,4.20
2019-02-14T14:44:42.102Z,4.50
2019-02-14T14:47:21.508Z,4.08
2019-02-14T14:49:52.778Z,4.45
2019-02-14T14:52:24.004Z,3.75
2019-02-14T14:54:55.274Z,4.03
2019-02-14T14:57:26.477Z,3.95
2019-02-14T14:59:57.695Z,3.98
2019-02-14T15:02:28.937Z,3.70
2019-02-14T15:05:00.319Z,3.92
2019-02-14T15:07:32.018Z,4.25
2019-02-14T15:10:03.216Z,4.90
2019-02-14T15:12:34.951Z,3.67
2019-02-14T15:15:06.264Z,3.65
2019-02-14T15:17:37.527Z,4.12
2019-02-14T15:20:08.933Z,3.72
2019-02-14T15:22:40.240Z,3.92
2019-02-14T15:25:11.459Z,3.62
2019-02-14T15:27:42.756Z,3.15
2019-02-14T15:30:13.977Z,3.25
2019-02-14T15:32:45.243Z,4.00
2019-02-14T15:35:16.538Z,3.60
2019-02-14T15:37:47.788Z,3.08
2019-02-14T15:40:19.026Z,3.22
2019-02-14T15:42:50.233Z,3.22
2019-02-14T15:45:21.538Z,5.22
2019-02-14T15:47:52.766Z,3.42
2019-02-14T15:50:24.052Z,3.37
2019-02-14T15:52:57.006Z,3.22
2019-02-14T15:55:28.260Z,3.47
2019-02-14T15:58:00.572Z,3.40
2019-02-14T16:00:32.768Z,3.30
2019-02-14T16:03:04.789Z,3.27
2019-02-14T16:05:36.051Z,3.37
2019-02-14T16:08:08.170Z,3.17
2019-02-14T16:10:39.382Z,3.40
2019-02-14T16:13:10.663Z,3.37
2019-02-14T16:15:41.924Z,3.65
2019-02-14T16:18:13.090Z,3.70
2019-02-14T16:20:45.141Z,3.47
2019-02-14T16:23:16.331Z,3.90
2019-02-14T16:25:47.490Z,3.70
2019-02-14T16:28:18.718Z,3.87
2019-02-14T16:30:50.009Z,3.75
2019-02-14T16:33:23.565Z,3.75
2019-02-14T16:35:54.096Z,4.75
2019-02-14T16:38:25.460Z,4.10
2019-02-14T16:40:56.647Z,4.60
2019-02-14T16:43:27.841Z,4.08
2019-02-14T16:45:59.078Z,4.70
2019-02-14T16:48:30.233Z,4.50
2019-02-14T16:51:01.433Z,4.65
2019-02-14T16:53:32.643Z,4.60
2019-02-14T16:56:03.813Z,4.00
2019-02-14T16:58:34.925Z,4.85
2019-02-14T17:01:06.317Z,4.53
2019-02-14T17:03:38.636Z,4.78
2019-02-14T17:06:09.838Z,5.22
2019-02-14T17:08:41.089Z,5.30
2019-02-14T17:11:12.405Z,5.22
2019-02-14T17:13:43.718Z,5.42
2019-02-14T17:16:15.888Z,5.25
2019-02-14T17:18:47.246Z,5.72
2019-02-14T17:21:18.400Z,5.62
2019-02-14T17:23:49.697Z,5.50
2019-02-14T17:26:20.973Z,5.47
2019-02-14T17:28:52.132Z,6.75
2019-02-14T17:31:23.390Z,6.12
2019-02-14T17:33:54.595Z,7.10
2019-02-14T17:36:25.798Z,7.05
2019-02-14T17:38:56.998Z,6.15
2019-02-14T17:41:28.169Z,6.45
2019-02-14T17:43:59.303Z,6.40
2019-02-14T17:46:30.516Z,7.12
2019-02-14T17:49:01.685Z,6.72
2019-02-14T17:51:32.920Z,6.40
2019-02-14T17:54:04.126Z,6.12
2019-02-14T17:56:35.242Z,7.00
2019-02-14T17:59:06.546Z,5.90
2019-02-14T18:01:37.781Z,5.72
2019-02-14T18:04:09.092Z,6.10
2019-02-14T18:06:41.401Z,6.00
2019-02-14T18:09:12.629Z,6.05
2019-02-14T18:11:43.889Z,6.25
2019-02-14T18:14:15.122Z,5.67
2019-02-14T18:16:46.403Z,6.07
2019-02-14T18:19:17.700Z,7.00
2019-02-14T18:21:48.895Z,6.10
2019-02-14T18:24:20.115Z,7.08
2019-02-14T18:26:51.350Z,7.17
2019-02-14T18:29:22.833Z,7.60
2019-02-14T18:31:54.115Z,7.33
2019-02-14T18:34:25.303Z,7.30
2019-02-14T18:36:56.535Z,8.10
2019-02-14T18:39:27.697Z,7.55
2019-02-14T18:41:58.959Z,7.70
2019-02-14T18:44:30.214Z,7.67
2019-02-14T18:47:01.418Z,8.18
2019-02-14T18:49:32.589Z,11.78
2019-02-14T18:52:03.903Z,8.10
2019-02-14T18:54:35.067Z,8.23
2019-02-14T18:57:06.324Z,7.27
2019-02-14T18:59:37.514Z,8.05
2019-02-14T19:02:08.790Z,8.00
2019-02-14T19:04:39.904Z,8.73
2019-02-14T19:07:11.039Z,8.50
2019-02-14T19:09:42.346Z,8.03
2019-02-14T19:12:14.106Z,8.75
2019-02-14T19:14:45.507Z,9.40
2019-02-14T19:17:16.842Z,9.10
2019-02-14T19:19:48.131Z,9.07
2019-02-14T19:22:20.445Z,8.68
2019-02-14T19:24:51.821Z,8.40
2019-02-14T19:27:24.067Z,8.63
2019-02-14T19:29:56.579Z,8.67
2019-02-14T19:32:27.722Z,9.47
2019-02-14T19:34:59.049Z,9.87
2019-02-14T19:37:30.256Z,8.87
2019-02-14T19:40:01.486Z,9.53
2019-02-14T19:42:33.878Z,9.23
2019-02-14T19:45:05.260Z,9.03
2019-02-14T19:47:36.461Z,9.50
2019-02-14T19:50:08.822Z,9.37
2019-02-14T19:52:39.995Z,8.60
2019-02-14T19:55:11.274Z,8.33
2019-02-14T19:57:43.501Z,8.63
2019-02-14T20:00:14.717Z,9.50
2019-02-14T20:02:45.949Z,9.17
2019-02-14T20:05:17.545Z,8.80
2019-02-14T20:07:49.290Z,8.77
2019-02-14T20:10:20.458Z,9.23
2019-02-14T20:12:51.753Z,9.03
2019-02-14T20:15:22.960Z,8.87
2019-02-14T20:17:54.185Z,8.83
2019-02-14T20:20:25.339Z,9.60
2019-02-14T20:22:56.572Z,8.77
2019-02-14T20:25:27.866Z,7.90
2019-02-14T20:27:59.055Z,7.83
2019-02-14T20:30:30.283Z,8.20
2019-02-14T20:33:04.786Z,7.50
2019-02-14T20:35:34.516Z,7.83
2019-02-14T20:38:05.729Z,7.67
2019-02-14T20:40:37.881Z,8.17
2019-02-14T20:43:09.100Z,7.60
2019-02-14T20:45:41.220Z,7.93
2019-02-14T20:48:13.516Z,7.47
2019-02-14T20:50:44.720Z,7.83
2019-02-14T20:53:17.055Z,8.67
2019-02-14T20:55:48.243Z,8.20
2019-02-14T20:58:19.619Z,8.37
2019-02-14T21:00:50.850Z,8.00
2019-02-14T21:03:22.095Z,8.73
2019-02-14T21:05:53.316Z,8.50
2019-02-14T21:08:24.605Z,9.80
2019-02-14T21:10:56.911Z,8.67
2019-02-14T21:13:28.111Z,8.60
2019-02-14T21:15:59.404Z,8.80
2019-02-14T21:18:30.669Z,9.13
2019-02-14T21:21:01.803Z,9.70
2019-02-14T21:23:33.096Z,10.30
2019-02-14T21:26:04.586Z,10.00
2019-02-14T21:28:35.833Z,9.67
2019-02-14T21:31:07.119Z,9.37
2019-02-14T21:33:38.321Z,10.00
2019-02-14T21:36:09.591Z,10.07
2019-02-14T21:38:40.931Z,8.87
2019-02-14T21:41:12.209Z,9.07
2019-02-14T21:43:43.572Z,8.47
2019-02-14T21:46:14.940Z,8.73
2019-02-14T21:48:46.247Z,9.07
2019-02-14T21:51:17.458Z,8.93
2019-02-14T21:53:48.665Z,9.17
2019-02-14T21:56:19.957Z,9.23
2019-02-14T21:58:51.256Z,10.07
2019-02-14T22:01:25.012Z,9.77
2019-02-14T22:03:57.345Z,9.63
2019-02-14T22:06:28.542Z,9.63
2019-02-14T22:09:00.004Z,9.73
2019-02-14T22:11:34.391Z,9.77
2019-02-14T22:14:05.171Z,10.30
2019-02-14T22:16:36.463Z,9.87
2019-02-14T22:19:07.709Z,9.97
2019-02-14T22:21:39.046Z,9.90
2019-02-14T22:24:10.297Z,11.20
2019-02-14T22:26:41.603Z,9.30
2019-02-14T22:29:12.937Z,9.87
2019-02-14T22:31:44.212Z,11.00
2019-02-14T22:34:15.830Z,10.63
2019-02-14T22:36:47.301Z,10.13
2019-02-14T22:39:18.812Z,10.23
2019-02-14T22:41:50.736Z,9.03
2019-02-14T22:44:22.011Z,9.93
2019-02-14T22:46:53.340Z,11.23
2019-02-14T22:49:24.698Z,10.40
2019-02-14T22:51:56.091Z,12.37
2019-02-14T22:54:27.331Z,12.90
2019-02-14T22:56:58.785Z,12.57
2019-02-14T22:59:30.274Z,11.77
2019-02-14T23:02:01.577Z,13.13
2019-02-14T23:04:34.656Z,12.47
2019-02-14T23:07:05.813Z,11.87
2019-02-14T23:09:37.099Z,11.50
2019-02-14T23:12:08.346Z,10.67
2019-02-14T23:14:39.571Z,11.10
2019-02-14T23:17:10.839Z,10.77
2019-02-14T23:19:42.126Z,10.17
2019-02-14T23:22:13.541Z,10.17
2019-02-14T23:24:44.734Z,10.83
2019-02-14T23:27:17.009Z,10.73
2019-02-14T23:29:48.242Z,9.77
2019-02-14T23:32:19.654Z,11.07
2019-02-14T23:34:50.851Z,9.80
2019-02-14T23:37:22.046Z,10.67
2019-02-14T23:39:53.234Z,10.83
2019-02-14T23:42:24.627Z,11.20
2019-02-14T23:44:55.863Z,11.03
2019-02-14T23:47:27.024Z,11.67
2019-02-14T23:49:58.268Z,11.50
2019-02-14T23:52:29.522Z,10.73
2019-02-14T23:55:00.804Z,10.40
2019-02-14T23:57:33.058Z,10.43
